METAR Data
IDs: Format: Raw Decoded Include TAF

Data at: 1651 UTC 03 Dec 2021

RJOM 031200Z 30012KT 9999 -SHRA FEW015 FEW025CB SCT030 BKN045 11/07 Q1016